Terminal Aerodrome Forecast
Issued by NWS Tuscon, AZ

Home | Current Version | Previous Version | Text Only | Print | Product List | Glossary On
Versions: 1 2 3 4 5 6 7 8 9 10 11 12 13
000
FTUS45 KTWC 011738
TAFDUG
TAF
KDUG 011738Z 0118/0218 17006KT P6SM FEW070 SCT200
     FM012000 20009KT P6SM VCTS SCT060CB BKN100
     FM020100 13008KT P6SM SCT060 BKN100
     FM020700 VRB04KT P6SM SCT100 BKN180=

USA.gov is the U.S. government's official web portal to all federal, state and local government web resources and services.